sensor_id;sensor_type;location;lat;lon;timestamp;temperature;humidity
26099;DHT22;13860;52.370;6.764;2023-03-03T00:00:11;2.90;74.90
26099;DHT22;13860;52.370;6.764;2023-03-03T00:03:19;2.90;75.00
26099;DHT22;13860;52.370;6.764;2023-03-03T00:06:25;2.90;74.90
26099;DHT22;13860;52.370;6.764;2023-03-03T00:09:33;2.90;74.90
26099;DHT22;13860;52.370;6.764;2023-03-03T00:12:45;2.90;75.00
26099;DHT22;13860;52.370;6.764;2023-03-03T00:15:53;2.90;75.00
26099;DHT22;13860;52.370;6.764;2023-03-03T00:18:57;2.90;75.00
26099;DHT22;13860;52.370;6.764;2023-03-03T00:22:15;2.90;75.00
26099;DHT22;13860;52.370;6.764;2023-03-03T00:25:27;2.90;75.10
26099;DHT22;13860;52.370;6.764;2023-03-03T00:28:44;2.90;75.00
26099;DHT22;13860;52.370;6.764;2023-03-03T00:31:49;2.90;75.00
26099;DHT22;13860;52.370;6.764;2023-03-03T00:35:01;2.90;75.10
26099;DHT22;13860;52.370;6.764;2023-03-03T00:38:22;2.90;75.10
26099;DHT22;13860;52.370;6.764;2023-03-03T00:41:28;2.90;75.10
26099;DHT22;13860;52.370;6.764;2023-03-03T00:44:39;2.90;75.30
26099;DHT22;13860;52.370;6.764;2023-03-03T00:47:46;2.90;75.20
26099;DHT22;13860;52.370;6.764;2023-03-03T00:50:51;2.90;75.20
26099;DHT22;13860;52.370;6.764;2023-03-03T00:53:59;2.90;75.20
26099;DHT22;13860;52.370;6.764;2023-03-03T00:57:04;2.90;75.20
26099;DHT22;13860;52.370;6.764;2023-03-03T01:00:12;2.90;75.30
26099;DHT22;13860;52.370;6.764;2023-03-03T01:03:18;2.90;75.30
26099;DHT22;13860;52.370;6.764;2023-03-03T01:06:24;3.00;75.40
26099;DHT22;13860;52.370;6.764;2023-03-03T01:09:31;3.00;75.40
26099;DHT22;13860;52.370;6.764;2023-03-03T01:12:37;3.00;75.40
26099;DHT22;13860;52.370;6.764;2023-03-03T01:15:42;3.00;75.40
26099;DHT22;13860;52.370;6.764;2023-03-03T01:18:50;3.00;75.40
26099;DHT22;13860;52.370;6.764;2023-03-03T01:21:54;3.00;75.40
26099;DHT22;13860;52.370;6.764;2023-03-03T01:25:02;3.00;75.40
26099;DHT22;13860;52.370;6.764;2023-03-03T01:28:06;3.10;75.50
26099;DHT22;13860;52.370;6.764;2023-03-03T01:31:12;3.10;75.50
26099;DHT22;13860;52.370;6.764;2023-03-03T01:34:16;3.10;75.50
26099;DHT22;13860;52.370;6.764;2023-03-03T01:37:23;3.10;75.50
26099;DHT22;13860;52.370;6.764;2023-03-03T01:40:30;3.10;75.50
26099;DHT22;13860;52.370;6.764;2023-03-03T01:43:43;3.10;75.50
26099;DHT22;13860;52.370;6.764;2023-03-03T01:46:54;3.10;75.50
26099;DHT22;13860;52.370;6.764;2023-03-03T01:50:04;3.20;75.60
26099;DHT22;13860;52.370;6.764;2023-03-03T01:53:15;3.20;75.60
26099;DHT22;13860;52.370;6.764;2023-03-03T01:56:25;3.20;75.60
26099;DHT22;13860;52.370;6.764;2023-03-03T01:59:32;3.20;75.50
26099;DHT22;13860;52.370;6.764;2023-03-03T02:02:40;3.20;75.40
26099;DHT22;13860;52.370;6.764;2023-03-03T02:05:53;3.30;75.50
26099;DHT22;13860;52.370;6.764;2023-03-03T02:09:04;3.30;75.50
26099;DHT22;13860;52.370;6.764;2023-03-03T02:12:16;3.30;75.50
26099;DHT22;13860;52.370;6.764;2023-03-03T02:15:25;3.30;75.60
26099;DHT22;13860;52.370;6.764;2023-03-03T02:18:29;3.30;75.50
26099;DHT22;13860;52.370;6.764;2023-03-03T02:21:36;3.30;75.50
26099;DHT22;13860;52.370;6.764;2023-03-03T02:24:42;3.30;75.60
26099;DHT22;13860;52.370;6.764;2023-03-03T02:27:52;3.30;75.60
26099;DHT22;13860;52.370;6.764;2023-03-03T02:30:59;3.30;75.70
26099;DHT22;13860;52.370;6.764;2023-03-03T02:34:05;3.30;75.80
26099;DHT22;13860;52.370;6.764;2023-03-03T02:37:09;3.30;75.80
26099;DHT22;13860;52.370;6.764;2023-03-03T02:40:17;3.30;75.80
26099;DHT22;13860;52.370;6.764;2023-03-03T02:43:27;3.40;75.80
26099;DHT22;13860;52.370;6.764;2023-03-03T02:46:36;3.40;75.80
26099;DHT22;13860;52.370;6.764;2023-03-03T02:49:41;3.40;75.80
26099;DHT22;13860;52.370;6.764;2023-03-03T02:52:48;3.40;75.80
26099;DHT22;13860;52.370;6.764;2023-03-03T02:55:52;3.40;75.90
26099;DHT22;13860;52.370;6.764;2023-03-03T02:59:00;3.40;75.90
26099;DHT22;13860;52.370;6.764;2023-03-03T03:02:08;3.40;75.90
26099;DHT22;13860;52.370;6.764;2023-03-03T03:05:15;3.50;75.90
26099;DHT22;13860;52.370;6.764;2023-03-03T03:08:19;3.40;75.90
26099;DHT22;13860;52.370;6.764;2023-03-03T03:11:25;3.50;75.90
26099;DHT22;13860;52.370;6.764;2023-03-03T03:14:32;3.50;75.90
26099;DHT22;13860;52.370;6.764;2023-03-03T03:17:38;3.50;75.90
26099;DHT22;13860;52.370;6.764;2023-03-03T03:20:43;3.50;75.90
26099;DHT22;13860;52.370;6.764;2023-03-03T03:23:51;3.50;75.90
26099;DHT22;13860;52.370;6.764;2023-03-03T03:26:56;3.50;75.90
26099;DHT22;13860;52.370;6.764;2023-03-03T03:30:07;3.50;75.90
26099;DHT22;13860;52.370;6.764;2023-03-03T03:33:13;3.50;76.00
26099;DHT22;13860;52.370;6.764;2023-03-03T03:36:19;3.50;76.00
26099;DHT22;13860;52.370;6.764;2023-03-03T03:39:23;3.50;76.10
26099;DHT22;13860;52.370;6.764;2023-03-03T03:42:31;3.50;76.10
26099;DHT22;13860;52.370;6.764;2023-03-03T03:45:37;3.50;76.10
26099;DHT22;13860;52.370;6.764;2023-03-03T03:48:44;3.50;76.00
26099;DHT22;13860;52.370;6.764;2023-03-03T03:51:51;3.50;76.00
26099;DHT22;13860;52.370;6.764;2023-03-03T03:55:00;3.50;76.00
26099;DHT22;13860;52.370;6.764;2023-03-03T03:58:04;3.50;76.00
26099;DHT22;13860;52.370;6.764;2023-03-03T04:01:13;3.50;76.00
26099;DHT22;13860;52.370;6.764;2023-03-03T04:04:21;3.50;76.10
26099;DHT22;13860;52.370;6.764;2023-03-03T04:07:28;3.60;76.10
26099;DHT22;13860;52.370;6.764;2023-03-03T04:10:33;3.60;76.10
26099;DHT22;13860;52.370;6.764;2023-03-03T04:13:41;3.60;76.10
26099;DHT22;13860;52.370;6.764;2023-03-03T04:16:48;3.60;76.20
26099;DHT22;13860;52.370;6.764;2023-03-03T04:19:54;3.60;76.20
26099;DHT22;13860;52.370;6.764;2023-03-03T04:22:59;3.60;76.10
26099;DHT22;13860;52.370;6.764;2023-03-03T04:26:07;3.60;76.10
26099;DHT22;13860;52.370;6.764;2023-03-03T04:29:13;3.60;76.10
26099;DHT22;13860;52.370;6.764;2023-03-03T04:32:22;3.60;76.10
26099;DHT22;13860;52.370;6.764;2023-03-03T04:35:26;3.60;76.10
26099;DHT22;13860;52.370;6.764;2023-03-03T04:38:33;3.60;76.20
26099;DHT22;13860;52.370;6.764;2023-03-03T04:41:37;3.60;76.20
26099;DHT22;13860;52.370;6.764;2023-03-03T04:44:43;3.60;76.10
26099;DHT22;13860;52.370;6.764;2023-03-03T04:47:50;3.60;76.10
26099;DHT22;13860;52.370;6.764;2023-03-03T04:50:57;3.60;76.20
26099;DHT22;13860;52.370;6.764;2023-03-03T04:54:02;3.60;76.20
26099;DHT22;13860;52.370;6.764;2023-03-03T04:57:08;3.60;76.20
26099;DHT22;13860;52.370;6.764;2023-03-03T05:00:15;3.60;76.30
26099;DHT22;13860;52.370;6.764;2023-03-03T05:03:23;3.60;76.30
26099;DHT22;13860;52.370;6.764;2023-03-03T05:06:27;3.60;76.20
26099;DHT22;13860;52.370;6.764;2023-03-03T05:09:34;3.60;76.30
26099;DHT22;13860;52.370;6.764;2023-03-03T05:12:38;3.60;76.30
26099;DHT22;13860;52.370;6.764;2023-03-03T05:15:48;3.60;76.30
26099;DHT22;13860;52.370;6.764;2023-03-03T05:18:54;3.60;76.40
26099;DHT22;13860;52.370;6.764;2023-03-03T05:22:00;3.60;76.30
26099;DHT22;13860;52.370;6.764;2023-03-03T05:25:06;3.70;76.40
26099;DHT22;13860;52.370;6.764;2023-03-03T05:28:14;3.70;76.40
26099;DHT22;13860;52.370;6.764;2023-03-03T05:31:18;3.70;76.40
26099;DHT22;13860;52.370;6.764;2023-03-03T05:34:27;3.70;76.90
26099;DHT22;13860;52.370;6.764;2023-03-03T05:37:31;3.70;76.30
26099;DHT22;13860;52.370;6.764;2023-03-03T05:40:37;3.70;76.30
26099;DHT22;13860;52.370;6.764;2023-03-03T05:43:42;3.70;76.50
26099;DHT22;13860;52.370;6.764;2023-03-03T05:46:48;3.70;76.40
26099;DHT22;13860;52.370;6.764;2023-03-03T05:49:54;3.70;76.40
26099;DHT22;13860;52.370;6.764;2023-03-03T05:53:00;3.70;76.40
26099;DHT22;13860;52.370;6.764;2023-03-03T05:56:05;3.70;76.40
26099;DHT22;13860;52.370;6.764;2023-03-03T05:59:11;3.70;76.40
26099;DHT22;13860;52.370;6.764;2023-03-03T06:02:15;3.70;76.40
26099;DHT22;13860;52.370;6.764;2023-03-03T06:05:23;3.70;76.40
26099;DHT22;13860;52.370;6.764;2023-03-03T06:08:28;3.70;76.40
26099;DHT22;13860;52.370;6.764;2023-03-03T06:11:35;3.80;76.40
26099;DHT22;13860;52.370;6.764;2023-03-03T06:14:40;3.80;76.40
26099;DHT22;13860;52.370;6.764;2023-03-03T06:17:46;3.80;76.40
26099;DHT22;13860;52.370;6.764;2023-03-03T06:20:53;3.80;76.50
26099;DHT22;13860;52.370;6.764;2023-03-03T06:23:59;3.70;76.50
26099;DHT22;13860;52.370;6.764;2023-03-03T06:27:04;3.70;76.50
26099;DHT22;13860;52.370;6.764;2023-03-03T06:30:11;3.70;76.50
26099;DHT22;13860;52.370;6.764;2023-03-03T06:33:15;3.70;76.50
26099;DHT22;13860;52.370;6.764;2023-03-03T06:36:23;3.70;76.50
26099;DHT22;13860;52.370;6.764;2023-03-03T06:39:28;3.70;76.60
26099;DHT22;13860;52.370;6.764;2023-03-03T06:42:33;3.70;76.60
26099;DHT22;13860;52.370;6.764;2023-03-03T06:45:37;3.70;76.70
26099;DHT22;13860;52.370;6.764;2023-03-03T06:48:43;3.70;76.70
26099;DHT22;13860;52.370;6.764;2023-03-03T06:51:49;3.70;76.80
26099;DHT22;13860;52.370;6.764;2023-03-03T06:54:58;3.70;76.80
26099;DHT22;13860;52.370;6.764;2023-03-03T06:58:07;3.70;76.80
26099;DHT22;13860;52.370;6.764;2023-03-03T07:01:16;3.70;76.90
26099;DHT22;13860;52.370;6.764;2023-03-03T07:04:24;3.60;76.80
26099;DHT22;13860;52.370;6.764;2023-03-03T07:07:35;3.60;76.90
26099;DHT22;13860;52.370;6.764;2023-03-03T07:10:39;3.70;76.90
26099;DHT22;13860;52.370;6.764;2023-03-03T07:13:47;3.60;76.90
26099;DHT22;13860;52.370;6.764;2023-03-03T07:16:57;3.60;77.00
26099;DHT22;13860;52.370;6.764;2023-03-03T07:20:17;3.60;77.00
26099;DHT22;13860;52.370;6.764;2023-03-03T07:23:27;3.70;77.10
26099;DHT22;13860;52.370;6.764;2023-03-03T07:26:34;3.70;77.10
26099;DHT22;13860;52.370;6.764;2023-03-03T07:29:38;3.70;77.10
26099;DHT22;13860;52.370;6.764;2023-03-03T07:32:46;3.80;77.10
26099;DHT22;13860;52.370;6.764;2023-03-03T07:35:51;3.80;77.10
26099;DHT22;13860;52.370;6.764;2023-03-03T07:39:02;3.80;77.10
26099;DHT22;13860;52.370;6.764;2023-03-03T07:42:18;3.80;77.10
26099;DHT22;13860;52.370;6.764;2023-03-03T07:45:35;3.90;77.20
26099;DHT22;13860;52.370;6.764;2023-03-03T07:48:41;3.80;77.20
26099;DHT22;13860;52.370;6.764;2023-03-03T07:51:52;3.90;77.20
26099;DHT22;13860;52.370;6.764;2023-03-03T07:55:01;3.90;77.30
26099;DHT22;13860;52.370;6.764;2023-03-03T07:58:28;3.90;77.30
26099;DHT22;13860;52.370;6.764;2023-03-03T08:01:40;3.90;77.20
26099;DHT22;13860;52.370;6.764;2023-03-03T08:04:47;4.00;77.40
26099;DHT22;13860;52.370;6.764;2023-03-03T08:07:54;4.00;77.30
26099;DHT22;13860;52.370;6.764;2023-03-03T08:11:03;4.00;77.30
26099;DHT22;13860;52.370;6.764;2023-03-03T08:14:11;4.00;77.30
26099;DHT22;13860;52.370;6.764;2023-03-03T08:17:21;4.00;77.40
26099;DHT22;13860;52.370;6.764;2023-03-03T08:20:50;4.00;77.50
26099;DHT22;13860;52.370;6.764;2023-03-03T08:23:56;4.10;77.60
26099;DHT22;13860;52.370;6.764;2023-03-03T08:27:03;4.10;77.50
26099;DHT22;13860;52.370;6.764;2023-03-03T08:30:10;4.10;77.50
26099;DHT22;13860;52.370;6.764;2023-03-03T08:33:14;4.20;77.50
26099;DHT22;13860;52.370;6.764;2023-03-03T08:36:20;4.20;77.50
26099;DHT22;13860;52.370;6.764;2023-03-03T08:39:24;4.30;77.60
26099;DHT22;13860;52.370;6.764;2023-03-03T08:42:34;4.20;77.50
26099;DHT22;13860;52.370;6.764;2023-03-03T08:45:38;4.40;77.60
26099;DHT22;13860;52.370;6.764;2023-03-03T08:48:44;4.40;77.60
26099;DHT22;13860;52.370;6.764;2023-03-03T08:51:49;4.50;77.60
26099;DHT22;13860;52.370;6.764;2023-03-03T08:54:57;4.50;77.60
26099;DHT22;13860;52.370;6.764;2023-03-03T08:58:03;4.60;77.50
26099;DHT22;13860;52.370;6.764;2023-03-03T09:01:09;4.70;77.60
26099;DHT22;13860;52.370;6.764;2023-03-03T09:04:13;4.70;77.50
26099;DHT22;13860;52.370;6.764;2023-03-03T09:07:19;4.80;77.50
26099;DHT22;13860;52.370;6.764;2023-03-03T09:10:24;4.80;77.50
26099;DHT22;13860;52.370;6.764;2023-03-03T09:13:34;4.90;77.40
26099;DHT22;13860;52.370;6.764;2023-03-03T09:16:40;4.90;77.80
26099;DHT22;13860;52.370;6.764;2023-03-03T09:19:46;5.00;77.30
26099;DHT22;13860;52.370;6.764;2023-03-03T09:22:50;5.00;77.30
26099;DHT22;13860;52.370;6.764;2023-03-03T09:25:58;5.10;77.30
26099;DHT22;13860;52.370;6.764;2023-03-03T09:29:24;5.10;77.40
26099;DHT22;13860;52.370;6.764;2023-03-03T09:32:34;5.20;77.30
26099;DHT22;13860;52.370;6.764;2023-03-03T09:35:39;5.30;77.90
26099;DHT22;13860;52.370;6.764;2023-03-03T09:38:46;5.30;77.30
26099;DHT22;13860;52.370;6.764;2023-03-03T09:42:18;5.50;77.60
26099;DHT22;13860;52.370;6.764;2023-03-03T09:45:46;5.70;77.90
26099;DHT22;13860;52.370;6.764;2023-03-03T09:48:58;5.90;77.90
26099;DHT22;13860;52.370;6.764;2023-03-03T09:52:17;6.20;77.80
26099;DHT22;13860;52.370;6.764;2023-03-03T09:55:34;6.40;77.70
26099;DHT22;13860;52.370;6.764;2023-03-03T09:59:02;6.60;77.50
26099;DHT22;13860;52.370;6.764;2023-03-03T10:02:24;6.80;77.30
26099;DHT22;13860;52.370;6.764;2023-03-03T10:05:40;7.00;77.00
26099;DHT22;13860;52.370;6.764;2023-03-03T10:08:59;7.10;76.90
26099;DHT22;13860;52.370;6.764;2023-03-03T10:12:11;7.20;76.80
26099;DHT22;13860;52.370;6.764;2023-03-03T10:15:29;7.30;76.60
26099;DHT22;13860;52.370;6.764;2023-03-03T10:18:48;7.40;76.50
26099;DHT22;13860;52.370;6.764;2023-03-03T10:22:03;7.50;76.40
26099;DHT22;13860;52.370;6.764;2023-03-03T10:25:32;7.50;76.30
26099;DHT22;13860;52.370;6.764;2023-03-03T10:29:02;7.60;76.40
26099;DHT22;13860;52.370;6.764;2023-03-03T10:32:42;7.80;76.50
26099;DHT22;13860;52.370;6.764;2023-03-03T10:36:19;7.90;76.40
26099;DHT22;13860;52.370;6.764;2023-03-03T10:39:40;8.10;76.50
26099;DHT22;13860;52.370;6.764;2023-03-03T10:43:02;8.30;76.60
26099;DHT22;13860;52.370;6.764;2023-03-03T10:46:36;8.60;76.50
26099;DHT22;13860;52.370;6.764;2023-03-03T10:49:53;8.80;76.20
26099;DHT22;13860;52.370;6.764;2023-03-03T10:53:14;9.10;76.20
26099;DHT22;13860;52.370;6.764;2023-03-03T10:56:32;9.30;76.00
26099;DHT22;13860;52.370;6.764;2023-03-03T11:00:07;9.50;75.70
26099;DHT22;13860;52.370;6.764;2023-03-03T11:03:40;9.70;75.50
26099;DHT22;13860;52.370;6.764;2023-03-03T11:06:54;9.80;75.20
26099;DHT22;13860;52.370;6.764;2023-03-03T11:10:14;10.10;75.30
26099;DHT22;13860;52.370;6.764;2023-03-03T11:13:27;10.20;75.00
26099;DHT22;13860;52.370;6.764;2023-03-03T11:16:41;10.40;74.90
26099;DHT22;13860;52.370;6.764;2023-03-03T11:20:00;10.50;74.80
26099;DHT22;13860;52.370;6.764;2023-03-03T11:23:20;10.60;74.50
26099;DHT22;13860;52.370;6.764;2023-03-03T11:26:49;10.80;74.30
26099;DHT22;13860;52.370;6.764;2023-03-03T11:30:04;11.00;74.10
26099;DHT22;13860;52.370;6.764;2023-03-03T11:33:21;11.00;73.90
26099;DHT22;13860;52.370;6.764;2023-03-03T11:36:29;11.20;73.80
26099;DHT22;13860;52.370;6.764;2023-03-03T11:39:39;11.30;73.70
26099;DHT22;13860;52.370;6.764;2023-03-03T11:43:02;11.40;73.50
26099;DHT22;13860;52.370;6.764;2023-03-03T11:46:11;11.50;73.20
26099;DHT22;13860;52.370;6.764;2023-03-03T11:49:21;11.70;73.30
26099;DHT22;13860;52.370;6.764;2023-03-03T11:52:37;11.80;73.00
26099;DHT22;13860;52.370;6.764;2023-03-03T11:55:45;11.90;72.70
26099;DHT22;13860;52.370;6.764;2023-03-03T11:59:04;11.90;72.60
26099;DHT22;13860;52.370;6.764;2023-03-03T12:05:55;12.00;72.20
26099;DHT22;13860;52.370;6.764;2023-03-03T12:09:28;12.00;72.00
26099;DHT22;13860;52.370;6.764;2023-03-03T12:12:41;12.00;71.80
26099;DHT22;13860;52.370;6.764;2023-03-03T12:15:52;11.90;71.90
26099;DHT22;13860;52.370;6.764;2023-03-03T12:19:12;11.90;71.70
26099;DHT22;13860;52.370;6.764;2023-03-03T12:22:31;11.90;71.60
26099;DHT22;13860;52.370;6.764;2023-03-03T12:25:40;11.80;71.40
26099;DHT22;13860;52.370;6.764;2023-03-03T12:28:50;11.70;71.60
26099;DHT22;13860;52.370;6.764;2023-03-03T12:32:06;11.60;71.40
26099;DHT22;13860;52.370;6.764;2023-03-03T12:35:23;11.50;71.30
26099;DHT22;13860;52.370;6.764;2023-03-03T12:38:39;11.40;71.20
26099;DHT22;13860;52.370;6.764;2023-03-03T12:41:49;11.30;71.30
26099;DHT22;13860;52.370;6.764;2023-03-03T12:45:07;11.30;71.30
26099;DHT22;13860;52.370;6.764;2023-03-03T12:48:19;11.20;71.20
26099;DHT22;13860;52.370;6.764;2023-03-03T12:51:36;11.10;71.20
26099;DHT22;13860;52.370;6.764;2023-03-03T12:54:52;11.00;71.20
26099;DHT22;13860;52.370;6.764;2023-03-03T12:58:07;11.00;71.20
26099;DHT22;13860;52.370;6.764;2023-03-03T13:01:28;10.90;71.20
26099;DHT22;13860;52.370;6.764;2023-03-03T13:04:47;10.80;71.00
26099;DHT22;13860;52.370;6.764;2023-03-03T13:08:25;10.70;71.00
26099;DHT22;13860;52.370;6.764;2023-03-03T13:11:54;10.70;70.90
26099;DHT22;13860;52.370;6.764;2023-03-03T13:15:08;10.60;70.90
26099;DHT22;13860;52.370;6.764;2023-03-03T13:18:27;10.50;71.10
26099;DHT22;13860;52.370;6.764;2023-03-03T13:21:35;10.50;71.10
26099;DHT22;13860;52.370;6.764;2023-03-03T13:24:54;10.40;71.20
26099;DHT22;13860;52.370;6.764;2023-03-03T13:28:05;10.30;71.10
26099;DHT22;13860;52.370;6.764;2023-03-03T13:31:21;10.20;71.20
26099;DHT22;13860;52.370;6.764;2023-03-03T13:34:36;10.10;71.10
26099;DHT22;13860;52.370;6.764;2023-03-03T13:37:51;10.10;71.20
26099;DHT22;13860;52.370;6.764;2023-03-03T13:41:01;10.00;71.20
26099;DHT22;13860;52.370;6.764;2023-03-03T13:44:11;10.00;71.30
26099;DHT22;13860;52.370;6.764;2023-03-03T13:47:22;9.90;71.30
26099;DHT22;13860;52.370;6.764;2023-03-03T13:50:34;9.90;71.30
26099;DHT22;13860;52.370;6.764;2023-03-03T13:53:46;9.80;71.30
26099;DHT22;13860;52.370;6.764;2023-03-03T13:57:11;9.80;71.30
26099;DHT22;13860;52.370;6.764;2023-03-03T14:00:30;9.80;71.20
26099;DHT22;13860;52.370;6.764;2023-03-03T14:03:52;9.70;71.30
26099;DHT22;13860;52.370;6.764;2023-03-03T14:07:04;9.70;71.20
26099;DHT22;13860;52.370;6.764;2023-03-03T14:10:18;9.70;71.30
26099;DHT22;13860;52.370;6.764;2023-03-03T14:13:27;9.60;71.20
26099;DHT22;13860;52.370;6.764;2023-03-03T14:16:49;9.60;71.20
26099;DHT22;13860;52.370;6.764;2023-03-03T14:20:01;9.60;71.20
26099;DHT22;13860;52.370;6.764;2023-03-03T14:23:13;9.50;71.20
26099;DHT22;13860;52.370;6.764;2023-03-03T14:26:21;9.50;71.90
26099;DHT22;13860;52.370;6.764;2023-03-03T14:29:31;9.50;71.20
26099;DHT22;13860;52.370;6.764;2023-03-03T14:32:35;9.50;71.20
26099;DHT22;13860;52.370;6.764;2023-03-03T14:35:52;9.50;71.20
26099;DHT22;13860;52.370;6.764;2023-03-03T14:39:28;9.40;71.10
26099;DHT22;13860;52.370;6.764;2023-03-03T14:42:39;9.40;71.10
26099;DHT22;13860;52.370;6.764;2023-03-03T14:45:50;9.40;71.10
26099;DHT22;13860;52.370;6.764;2023-03-03T14:48:59;9.40;71.20
26099;DHT22;13860;52.370;6.764;2023-03-03T14:52:10;9.40;71.20
26099;DHT22;13860;52.370;6.764;2023-03-03T14:55:32;9.30;71.10
26099;DHT22;13860;52.370;6.764;2023-03-03T14:58:41;9.30;71.00
26099;DHT22;13860;52.370;6.764;2023-03-03T15:01:47;9.30;71.60
26099;DHT22;13860;52.370;6.764;2023-03-03T15:05:20;9.30;71.00
26099;DHT22;13860;52.370;6.764;2023-03-03T15:08:31;9.30;70.90
26099;DHT22;13860;52.370;6.764;2023-03-03T15:11:35;9.30;70.90
26099;DHT22;13860;52.370;6.764;2023-03-03T15:14:45;9.30;70.90
26099;DHT22;13860;52.370;6.764;2023-03-03T15:17:57;9.30;70.90
26099;DHT22;13860;52.370;6.764;2023-03-03T15:21:07;9.30;70.90
26099;DHT22;13860;52.370;6.764;2023-03-03T15:24:19;9.30;70.80
26099;DHT22;13860;52.370;6.764;2023-03-03T15:27:31;9.30;70.80
26099;DHT22;13860;52.370;6.764;2023-03-03T15:30:45;9.30;70.80
26099;DHT22;13860;52.370;6.764;2023-03-03T15:34:01;9.30;70.70
26099;DHT22;13860;52.370;6.764;2023-03-03T15:37:16;9.30;70.70
26099;DHT22;13860;52.370;6.764;2023-03-03T15:40:34;9.30;71.40
26099;DHT22;13860;52.370;6.764;2023-03-03T15:43:48;9.30;70.80
26099;DHT22;13860;52.370;6.764;2023-03-03T15:47:19;9.30;70.80
26099;DHT22;13860;52.370;6.764;2023-03-03T15:50:39;9.30;70.80
26099;DHT22;13860;52.370;6.764;2023-03-03T15:57:35;9.30;70.90
26099;DHT22;13860;52.370;6.764;2023-03-03T16:00:55;9.30;70.80
26099;DHT22;13860;52.370;6.764;2023-03-03T16:04:12;9.20;70.80
26099;DHT22;13860;52.370;6.764;2023-03-03T16:07:28;9.20;70.80
26099;DHT22;13860;52.370;6.764;2023-03-03T16:10:36;9.20;70.80
26099;DHT22;13860;52.370;6.764;2023-03-03T16:13:58;9.20;70.90
26099;DHT22;13860;52.370;6.764;2023-03-03T16:17:18;9.20;70.90
26099;DHT22;13860;52.370;6.764;2023-03-03T16:20:33;9.20;70.90
26099;DHT22;13860;52.370;6.764;2023-03-03T16:23:46;9.20;71.00
26099;DHT22;13860;52.370;6.764;2023-03-03T16:26:57;9.10;71.00
26099;DHT22;13860;52.370;6.764;2023-03-03T16:30:13;9.10;71.00
26099;DHT22;13860;52.370;6.764;2023-03-03T16:33:25;9.10;71.00
26099;DHT22;13860;52.370;6.764;2023-03-03T16:36:49;9.00;71.00
26099;DHT22;13860;52.370;6.764;2023-03-03T16:40:02;9.00;70.90
26099;DHT22;13860;52.370;6.764;2023-03-03T16:43:17;9.00;71.00
26099;DHT22;13860;52.370;6.764;2023-03-03T16:46:31;9.00;71.00
26099;DHT22;13860;52.370;6.764;2023-03-03T16:49:44;8.90;71.00
26099;DHT22;13860;52.370;6.764;2023-03-03T16:53:00;8.90;71.00
26099;DHT22;13860;52.370;6.764;2023-03-03T16:56:11;8.90;71.00
26099;DHT22;13860;52.370;6.764;2023-03-03T16:59:41;8.90;71.00
26099;DHT22;13860;52.370;6.764;2023-03-03T17:03:15;8.80;70.80
26099;DHT22;13860;52.370;6.764;2023-03-03T17:06:29;8.80;70.80
26099;DHT22;13860;52.370;6.764;2023-03-03T17:09:48;8.70;70.80
26099;DHT22;13860;52.370;6.764;2023-03-03T17:13:21;8.70;70.80
26099;DHT22;13860;52.370;6.764;2023-03-03T17:16:31;8.70;70.80
26099;DHT22;13860;52.370;6.764;2023-03-03T17:20:04;8.70;70.80
26099;DHT22;13860;52.370;6.764;2023-03-03T17:27:06;8.60;70.70
26099;DHT22;13860;52.370;6.764;2023-03-03T17:30:20;8.60;70.80
26099;DHT22;13860;52.370;6.764;2023-03-03T17:33:44;8.50;70.80
26099;DHT22;13860;52.370;6.764;2023-03-03T17:37:07;8.50;70.80
26099;DHT22;13860;52.370;6.764;2023-03-03T17:40:32;8.50;70.80
26099;DHT22;13860;52.370;6.764;2023-03-03T17:43:50;8.40;70.70
26099;DHT22;13860;52.370;6.764;2023-03-03T17:47:04;8.40;70.70
26099;DHT22;13860;52.370;6.764;2023-03-03T17:50:18;8.30;70.70
26099;DHT22;13860;52.370;6.764;2023-03-03T17:53:42;8.30;70.80
26099;DHT22;13860;52.370;6.764;2023-03-03T17:57:01;8.30;70.70
26099;DHT22;13860;52.370;6.764;2023-03-03T18:00:22;8.20;70.80
26099;DHT22;13860;52.370;6.764;2023-03-03T18:07:36;8.20;70.80
26099;DHT22;13860;52.370;6.764;2023-03-03T18:11:13;8.10;70.80
26099;DHT22;13860;52.370;6.764;2023-03-03T18:14:47;8.10;70.80
26099;DHT22;13860;52.370;6.764;2023-03-03T18:18:05;8.10;70.70
26099;DHT22;13860;52.370;6.764;2023-03-03T18:21:15;8.00;70.80
26099;DHT22;13860;52.370;6.764;2023-03-03T18:24:33;8.00;70.90
26099;DHT22;13860;52.370;6.764;2023-03-03T18:27:41;8.00;70.90
26099;DHT22;13860;52.370;6.764;2023-03-03T18:30:57;8.00;70.80
26099;DHT22;13860;52.370;6.764;2023-03-03T18:34:26;8.00;70.80
26099;DHT22;13860;52.370;6.764;2023-03-03T18:37:39;7.90;70.80
26099;DHT22;13860;52.370;6.764;2023-03-03T18:40:49;7.90;70.90
26099;DHT22;13860;52.370;6.764;2023-03-03T18:43:59;7.90;70.90
26099;DHT22;13860;52.370;6.764;2023-03-03T18:47:10;7.80;70.80
26099;DHT22;13860;52.370;6.764;2023-03-03T18:50:30;7.80;70.80
26099;DHT22;13860;52.370;6.764;2023-03-03T18:53:36;7.80;71.40
26099;DHT22;13860;52.370;6.764;2023-03-03T18:56:43;7.70;70.80
26099;DHT22;13860;52.370;6.764;2023-03-03T19:00:07;7.70;70.90
26099;DHT22;13860;52.370;6.764;2023-03-03T19:03:24;7.70;70.90
26099;DHT22;13860;52.370;6.764;2023-03-03T19:07:01;7.70;70.80
26099;DHT22;13860;52.370;6.764;2023-03-03T19:13:48;7.60;70.80
26099;DHT22;13860;52.370;6.764;2023-03-03T19:16:53;7.60;70.90
26099;DHT22;13860;52.370;6.764;2023-03-03T19:20:01;7.60;70.90
26099;DHT22;13860;52.370;6.764;2023-03-03T19:23:16;7.60;70.90
26099;DHT22;13860;52.370;6.764;2023-03-03T19:26:46;7.50;70.90
26099;DHT22;13860;52.370;6.764;2023-03-03T19:30:17;7.60;70.90
26099;DHT22;13860;52.370;6.764;2023-03-03T19:33:41;7.50;70.90
26099;DHT22;13860;52.370;6.764;2023-03-03T19:37:06;7.50;70.90
26099;DHT22;13860;52.370;6.764;2023-03-03T19:40:21;7.50;70.90
26099;DHT22;13860;52.370;6.764;2023-03-03T19:43:35;7.50;71.00
26099;DHT22;13860;52.370;6.764;2023-03-03T19:46:52;7.50;71.00
26099;DHT22;13860;52.370;6.764;2023-03-03T19:50:11;7.50;71.00
26099;DHT22;13860;52.370;6.764;2023-03-03T19:53:27;7.50;71.00
26099;DHT22;13860;52.370;6.764;2023-03-03T19:56:39;7.40;71.00
26099;DHT22;13860;52.370;6.764;2023-03-03T19:59:49;7.40;71.00
26099;DHT22;13860;52.370;6.764;2023-03-03T20:03:20;7.40;71.10
26099;DHT22;13860;52.370;6.764;2023-03-03T20:06:36;7.40;71.10
26099;DHT22;13860;52.370;6.764;2023-03-03T20:09:48;7.40;71.10
26099;DHT22;13860;52.370;6.764;2023-03-03T20:13:08;7.40;71.10
26099;DHT22;13860;52.370;6.764;2023-03-03T20:16:23;7.40;71.10
26099;DHT22;13860;52.370;6.764;2023-03-03T20:19:44;7.40;71.10
26099;DHT22;13860;52.370;6.764;2023-03-03T20:22:57;7.40;71.10
26099;DHT22;13860;52.370;6.764;2023-03-03T20:26:14;7.40;71.10
26099;DHT22;13860;52.370;6.764;2023-03-03T20:29:36;7.40;71.20
26099;DHT22;13860;52.370;6.764;2023-03-03T20:32:55;7.40;71.30
26099;DHT22;13860;52.370;6.764;2023-03-03T20:36:07;7.30;71.20
26099;DHT22;13860;52.370;6.764;2023-03-03T20:39:19;7.30;71.20
26099;DHT22;13860;52.370;6.764;2023-03-03T20:42:40;7.40;71.30
26099;DHT22;13860;52.370;6.764;2023-03-03T20:46:00;7.30;71.30
26099;DHT22;13860;52.370;6.764;2023-03-03T20:49:32;7.30;71.30
26099;DHT22;13860;52.370;6.764;2023-03-03T20:52:43;7.30;71.30